Time;durP1;ratioP1;P1;durP2;ratioP2;P2;SDS_P1;SDS_P2;PMS_P1;PMS_P2;Temp;Humidity;BMP_temperature;BMP_pressure;BME280_temperature;BME280_humidity;BME280_pressure;Samples;Min_cycle;Max_cycle;Signal;HPM_P1;HPM_P2
2021/03/25 00:02:20;;;;;;;53.70;19.83;;;;;;;;;;6225378;23;20175;-86
2021/03/25 00:05:26;;;;;;;55.40;20.10;;;;;;;;;;6224482;23;20167;-87
2021/03/25 00:08:30;;;;;;;53.43;19.43;;;;;;;;;;6226437;23;20167;-88
2021/03/25 00:11:35;;;;;;;55.90;18.90;;;;;;;;;;6224687;23;20630;-88
2021/03/25 00:14:40;;;;;;;56.33;19.67;;;;;;;;;;6226541;23;20249;-87
2021/03/25 00:17:44;;;;;;;56.13;19.53;;;;;;;;;;6226158;23;20646;-88
2021/03/25 00:20:49;;;;;;;54.17;20.03;;;;;;;;;;6226338;22;20611;-89
2021/03/25 00:23:53;;;;;;;58.07;19.77;;;;;;;;;;6224580;23;20278;-89
2021/03/25 00:26:58;;;;;;;54.20;18.77;;;;;;;;;;6223915;23;20186;-87
2021/03/25 00:30:03;;;;;;;50.13;17.83;;;;;;;;;;6225631;23;20155;-89
2021/03/25 00:33:09;;;;;;;52.87;19.50;;;;;;;;;;6225008;22;20163;-87
2021/03/25 00:36:14;;;;;;;51.70;20.17;;;;;;;;;;6224006;23;20170;-88
2021/03/25 00:39:19;;;;;;;58.20;19.23;;;;;;;;;;6223815;23;20167;-87
2021/03/25 00:42:24;;;;;;;58.60;20.00;;;;;;;;;;6225118;23;20198;-87
2021/03/25 00:45:29;;;;;;;56.13;19.07;;;;;;;;;;6224343;23;20163;-87
2021/03/25 00:48:34;;;;;;;56.30;19.60;;;;;;;;;;6225956;23;20242;-89
2021/03/25 00:51:38;;;;;;;54.77;19.90;;;;;;;;;;6225492;23;20619;-87
2021/03/25 00:54:42;;;;;;;51.60;19.40;;;;;;;;;;6225245;23;20167;-88
2021/03/25 00:57:48;;;;;;;51.43;19.70;;;;;;;;;;6223772;22;20171;-87
2021/03/25 01:00:53;;;;;;;50.97;18.83;;;;;;;;;;6223797;22;20199;-87
2021/03/25 01:03:58;;;;;;;52.97;19.67;;;;;;;;;;6224823;23;20237;-87
2021/03/25 01:07:03;;;;;;;56.40;20.30;;;;;;;;;;6224175;22;20228;-86
2021/03/25 01:10:15;;;;;;;55.33;19.47;;;;;;;;;;6225547;23;20681;-86
2021/03/25 01:13:23;;;;;;;55.67;20.37;;;;;;;;;;6224474;23;20167;-85
2021/03/25 01:16:30;;;;;;;55.23;18.93;;;;;;;;;;6223252;22;20186;-87
2021/03/25 01:19:35;;;;;;;59.07;19.67;;;;;;;;;;6225063;23;20190;-87
2021/03/25 01:22:39;;;;;;;59.50;20.23;;;;;;;;;;6224612;22;20233;-85
2021/03/25 01:25:44;;;;;;;59.90;19.10;;;;;;;;;;6224372;23;20171;-87
2021/03/25 01:28:50;;;;;;;48.50;17.90;;;;;;;;;;6225195;22;20190;-87
2021/03/25 01:31:55;;;;;;;55.53;18.20;;;;;;;;;;6223492;23;20175;-87
2021/03/25 01:35:00;;;;;;;60.63;20.60;;;;;;;;;;6224909;23;20175;-88
2021/03/25 01:38:06;;;;;;;52.67;19.83;;;;;;;;;;6225137;23;20635;-88
2021/03/25 01:41:11;;;;;;;52.13;19.53;;;;;;;;;;6224785;23;20538;-88
2021/03/25 01:44:33;;;;;;;58.50;19.23;;;;;;;;;;6225707;23;20183;-89
2021/03/25 01:47:41;;;;;;;54.73;19.07;;;;;;;;;;6223287;23;20213;-88
2021/03/25 01:50:46;;;;;;;52.80;18.47;;;;;;;;;;6224099;23;20271;-88
2021/03/25 01:54:10;;;;;;;56.93;20.07;;;;;;;;;;6224639;23;20504;-87
2021/03/25 01:57:34;;;;;;;52.03;19.33;;;;;;;;;;6223780;23;20170;-87
2021/03/25 02:00:44;;;;;;;54.97;19.00;;;;;;;;;;6224765;23;20163;-88
2021/03/25 02:04:13;;;;;;;58.67;20.60;;;;;;;;;;6226452;22;20195;-88
2021/03/25 02:07:22;;;;;;;54.73;18.53;;;;;;;;;;6225634;23;20202;-87
2021/03/25 02:10:34;;;;;;;56.77;18.53;;;;;;;;;;6225933;23;20218;-88
2021/03/25 02:13:46;;;;;;;56.03;18.67;;;;;;;;;;6226434;23;20163;-88
2021/03/25 02:17:01;;;;;;;57.37;18.90;;;;;;;;;;6227396;22;20179;-89
2021/03/25 02:20:41;;;;;;;55.57;19.70;;;;;;;;;;6227697;22;20727;-87
2021/03/25 02:24:01;;;;;;;61.10;19.30;;;;;;;;;;6225562;23;20191;-86
2021/03/25 02:27:21;;;;;;;60.53;18.83;;;;;;;;;;6226548;22;20163;-88
2021/03/25 02:30:32;;;;;;;56.90;20.10;;;;;;;;;;6227495;22;20167;-87
2021/03/25 02:33:42;;;;;;;58.77;19.93;;;;;;;;;;6226403;22;20199;-87
2021/03/25 02:36:54;;;;;;;53.80;19.13;;;;;;;;;;6224926;23;20167;-87
2021/03/25 02:40:07;;;;;;;58.33;19.73;;;;;;;;;;6226269;22;20588;-88
2021/03/25 02:43:16;;;;;;;58.93;19.13;;;;;;;;;;6209336;23;20694;-88
2021/03/25 02:46:24;;;;;;;57.23;19.37;;;;;;;;;;6226505;23;20175;-88
2021/03/25 02:49:37;;;;;;;50.37;17.70;;;;;;;;;;6209221;23;20220;-88
2021/03/25 02:52:43;;;;;;;53.57;18.83;;;;;;;;;;6208682;23;20155;-86
2021/03/25 02:55:48;;;;;;;52.00;18.57;;;;;;;;;;6208578;22;20618;-88
2021/03/25 02:59:04;;;;;;;51.37;18.30;;;;;;;;;;6209376;23;20163;-88
2021/03/25 03:02:12;;;;;;;55.43;18.73;;;;;;;;;;6209436;23;20216;-87
2021/03/25 03:05:21;;;;;;;56.87;18.83;;;;;;;;;;6206933;23;20190;-87
2021/03/25 03:08:28;;;;;;;58.13;18.80;;;;;;;;;;6208749;22;20177;-89
2021/03/25 03:11:35;;;;;;;56.33;19.73;;;;;;;;;;6208967;22;20167;-88
2021/03/25 03:14:42;;;;;;;59.03;18.50;;;;;;;;;;6208898;23;20179;-87
2021/03/25 03:17:56;;;;;;;54.27;18.50;;;;;;;;;;6209430;23;20190;-88
2021/03/25 03:21:21;;;;;;;59.40;18.83;;;;;;;;;;6209755;22;20167;-88
2021/03/25 03:24:47;;;;;;;57.00;18.20;;;;;;;;;;6227919;23;20194;-85
2021/03/25 03:28:17;;;;;;;52.63;19.00;;;;;;;;;;6228986;22;20195;-87
2021/03/25 03:31:23;;;;;;;60.53;19.67;;;;;;;;;;6208414;23;20194;-87
2021/03/25 03:34:32;;;;;;;52.23;18.83;;;;;;;;;;6209611;22;20174;-87
2021/03/25 03:37:42;;;;;;;54.33;18.33;;;;;;;;;;6209893;23;20175;-86
2021/03/25 03:40:56;;;;;;;56.80;19.23;;;;;;;;;;6217160;23;20512;-87
2021/03/25 03:44:04;;;;;;;57.33;18.77;;;;;;;;;;6227286;22;20527;-89
2021/03/25 03:47:10;;;;;;;59.37;18.97;;;;;;;;;;6227820;22;20249;-87
2021/03/25 03:50:19;;;;;;;52.00;19.57;;;;;;;;;;6226306;23;20171;-89
2021/03/25 03:53:27;;;;;;;55.83;18.83;;;;;;;;;;6228298;22;20158;-88
2021/03/25 03:56:37;;;;;;;59.43;20.20;;;;;;;;;;6226454;23;20615;-89
2021/03/25 03:59:50;;;;;;;62.17;19.40;;;;;;;;;;6225425;22;20240;-88
2021/03/25 04:02:59;;;;;;;54.37;17.97;;;;;;;;;;6226914;23;20171;-87
2021/03/25 04:06:30;;;;;;;63.17;20.00;;;;;;;;;;6207281;23;20214;-88
2021/03/25 04:09:53;;;;;;;57.33;19.20;;;;;;;;;;6226392;23;20171;-86
2021/03/25 04:13:10;;;;;;;60.60;19.40;;;;;;;;;;6225428;23;20207;-89
2021/03/25 04:16:16;;;;;;;83.70;28.53;;;;;;;;;;6225905;23;20171;-89
2021/03/25 04:19:23;;;;;;;57.63;19.80;;;;;;;;;;6226932;23;20191;-88
2021/03/25 04:22:42;;;;;;;67.03;20.07;;;;;;;;;;6227122;22;20172;-88
2021/03/25 04:25:51;;;;;;;56.63;18.67;;;;;;;;;;6225762;23;20618;-88
2021/03/25 04:29:00;;;;;;;54.67;18.80;;;;;;;;;;6227173;23;20167;-89
2021/03/25 04:32:05;;;;;;;57.93;18.03;;;;;;;;;;6226124;22;20195;-86
2021/03/25 04:35:15;;;;;;;59.90;19.30;;;;;;;;;;6227258;22;20187;-88
2021/03/25 04:38:20;;;;;;;66.00;20.73;;;;;;;;;;6227171;22;20150;-88
2021/03/25 04:41:25;;;;;;;61.97;18.53;;;;;;;;;;6227277;23;20206;-88
2021/03/25 04:44:33;;;;;;;50.83;17.83;;;;;;;;;;6227060;22;20218;-87
2021/03/25 04:47:43;;;;;;;57.17;19.33;;;;;;;;;;6226046;22;20171;-89
2021/03/25 04:50:55;;;;;;;48.63;17.67;;;;;;;;;;6227585;22;20697;-88
2021/03/25 04:54:11;;;;;;;62.17;19.47;;;;;;;;;;6226855;22;20199;-86
2021/03/25 04:57:25;;;;;;;60.37;19.37;;;;;;;;;;6226580;23;20670;-87
2021/03/25 05:00:31;;;;;;;54.27;18.23;;;;;;;;;;6226224;22;20151;-87
2021/03/25 05:03:35;;;;;;;58.03;19.27;;;;;;;;;;6226918;22;20175;-87
2021/03/25 05:06:43;;;;;;;53.13;18.50;;;;;;;;;;6225118;23;20171;-87
2021/03/25 05:09:48;;;;;;;64.70;19.73;;;;;;;;;;6226903;23;20163;-89
2021/03/25 05:12:58;;;;;;;57.70;18.97;;;;;;;;;;6228574;22;20198;-87
2021/03/25 05:16:09;;;;;;;59.37;19.10;;;;;;;;;;6227075;22;20174;-86
2021/03/25 05:19:17;;;;;;;61.77;18.43;;;;;;;;;;6227346;22;20171;-85
2021/03/25 05:22:24;;;;;;;58.37;18.40;;;;;;;;;;6227748;22;20171;-87
2021/03/25 05:25:31;;;;;;;59.83;19.00;;;;;;;;;;6228249;23;20785;-87
2021/03/25 05:28:39;;;;;;;54.87;18.43;;;;;;;;;;6228923;22;20158;-87
2021/03/25 05:31:46;;;;;;;59.53;18.57;;;;;;;;;;6227643;22;20186;-87
2021/03/25 05:34:53;;;;;;;58.27;19.30;;;;;;;;;;6227601;22;20243;-87
2021/03/25 05:37:58;;;;;;;65.03;19.70;;;;;;;;;;6228576;22;20167;-86
2021/03/25 05:41:10;;;;;;;58.93;17.90;;;;;;;;;;6226490;23;20263;-85
2021/03/25 05:44:31;;;;;;;63.73;18.03;;;;;;;;;;6226501;23;20209;-87
2021/03/25 05:47:41;;;;;;;62.30;19.47;;;;;;;;;;6228995;22;20286;-86
2021/03/25 05:50:49;;;;;;;60.13;18.70;;;;;;;;;;6230344;22;20191;-86
2021/03/25 05:54:00;;;;;;;64.13;19.70;;;;;;;;;;6228868;23;20171;-86
2021/03/25 05:57:16;;;;;;;54.03;18.53;;;;;;;;;;6229224;23;20224;-87
2021/03/25 06:00:26;;;;;;;56.00;18.63;;;;;;;;;;6230009;23;20155;-87
2021/03/25 06:03:31;;;;;;;52.40;17.60;;;;;;;;;;6227117;22;20222;-88
2021/03/25 06:06:42;;;;;;;47.27;17.27;;;;;;;;;;6229675;23;20171;-87
2021/03/25 06:09:53;;;;;;;53.40;16.00;;;;;;;;;;6228350;23;20191;-87
2021/03/25 09:55:10;;;;;;;33.30;9.00;;;;;;;;;;6183198;22;20264;-88
2021/03/25 09:58:30;;;;;;;25.70;7.85;;;;;;;;;;6227807;22;20171;-90
2021/03/25 10:01:46;;;;;;;21.73;8.85;;;;;;;;;;6209689;23;20170;-90
2021/03/25 10:05:10;;;;;;;14.70;8.38;;;;;;;;;;6210301;23;20171;-89
2021/03/25 10:08:40;;;;;;;16.83;8.68;;;;;;;;;;6226296;23;20445;-89
2021/03/25 10:11:50;;;;;;;14.95;7.40;;;;;;;;;;6211160;23;20162;-89
2021/03/25 10:14:54;;;;;;;22.02;8.43;;;;;;;;;;6227842;23;20202;-89
2021/03/25 10:18:00;;;;;;;18.83;8.38;;;;;;;;;;6226523;23;20163;-89
2021/03/25 10:21:06;;;;;;;16.73;7.93;;;;;;;;;;6227065;23;20167;-89
2021/03/25 10:24:17;;;;;;;17.35;6.90;;;;;;;;;;6226093;22;20171;-87
2021/03/25 10:27:27;;;;;;;13.02;6.60;;;;;;;;;;6225380;23;20167;-89
2021/03/25 10:30:35;;;;;;;22.30;6.75;;;;;;;;;;6226777;22;20167;-89
2021/03/25 10:33:40;;;;;;;22.00;7.05;;;;;;;;;;6229231;23;20175;-89
2021/03/25 10:36:47;;;;;;;19.70;6.45;;;;;;;;;;6227734;23;20170;-89
2021/03/25 10:39:59;;;;;;;16.52;6.20;;;;;;;;;;6228127;22;20170;-88
2021/03/25 10:43:06;;;;;;;11.98;6.50;;;;;;;;;;6229747;22;20167;-91
2021/03/25 10:46:26;;;;;;;11.88;6.13;;;;;;;;;;6228456;23;20190;-90
2021/03/25 10:49:34;;;;;;;17.20;6.45;;;;;;;;;;6229216;23;20175;-89
2021/03/25 10:52:40;;;;;;;14.32;6.20;;;;;;;;;;6227788;23;20179;-90
2021/03/25 10:55:46;;;;;;;14.30;6.03;;;;;;;;;;6233639;23;20209;-89
2021/03/25 10:59:01;;;;;;;12.25;6.30;;;;;;;;;;6230651;22;20223;-90
2021/03/25 11:02:18;;;;;;;15.43;6.70;;;;;;;;;;6228530;23;20215;-90
2021/03/25 11:05:24;;;;;;;11.40;6.80;;;;;;;;;;6245461;22;20179;-88
2021/03/25 11:08:35;;;;;;;15.00;6.85;;;;;;;;;;6229761;23;20171;-90
2021/03/25 11:11:40;;;;;;;11.75;6.97;;;;;;;;;;6231013;22;20171;-89
2021/03/25 11:14:50;;;;;;;14.63;7.30;;;;;;;;;;6229246;23;20646;-89
2021/03/25 11:17:54;;;;;;;16.88;8.02;;;;;;;;;;6229488;22;20167;-89
2021/03/25 11:21:00;;;;;;;15.93;7.80;;;;;;;;;;6227888;22;20172;-87
2021/03/25 11:24:07;;;;;;;15.63;8.10;;;;;;;;;;6217970;22;20171;-88
2021/03/25 11:27:16;;;;;;;19.42;7.22;;;;;;;;;;6217069;23;20179;-89
2021/03/25 11:30:29;;;;;;;27.10;8.52;;;;;;;;;;6234810;23;20519;-89
2021/03/25 11:33:34;;;;;;;17.00;8.73;;;;;;;;;;6235224;22;20176;-89
2021/03/25 11:36:43;;;;;;;16.92;9.40;;;;;;;;;;6231181;23;20194;-90
2021/03/25 11:40:03;;;;;;;19.95;8.77;;;;;;;;;;6232052;22;20228;-89
2021/03/25 13:20:28;;;;;;;18.67;9.10;;;;;;;;;;6223994;22;20211;-90
2021/03/25 13:23:34;;;;;;;16.83;9.75;;;;;;;;;;6231647;23;20171;-90
2021/03/25 13:26:39;;;;;;;17.13;9.90;;;;;;;;;;6232758;23;20174;-89
2021/03/25 13:29:45;;;;;;;34.13;11.10;;;;;;;;;;6232515;23;20174;-89
2021/03/25 13:32:50;;;;;;;17.15;8.43;;;;;;;;;;6212919;23;20187;-90
2021/03/25 13:35:56;;;;;;;18.58;7.88;;;;;;;;;;6232009;22;20182;-90
2021/03/25 13:39:08;;;;;;;15.70;7.07;;;;;;;;;;6215270;23;20206;-89
2021/03/25 18:15:53;;;;;;;26.35;9.20;;;;;;;;;;6171008;22;20238;-87
2021/03/25 18:18:58;;;;;;;22.08;9.02;;;;;;;;;;6233450;22;20208;-87
2021/03/25 18:22:02;;;;;;;21.25;8.18;;;;;;;;;;6233350;23;20171;-87
2021/03/25 18:25:10;;;;;;;24.35;8.80;;;;;;;;;;6232621;23;20167;-88
2021/03/25 18:28:15;;;;;;;24.10;8.95;;;;;;;;;;6233689;23;20182;-88
2021/03/25 18:31:23;;;;;;;28.58;8.70;;;;;;;;;;6213847;23;20222;-88
2021/03/25 18:34:29;;;;;;;21.27;8.25;;;;;;;;;;6233389;23;20198;-89
2021/03/25 18:37:33;;;;;;;30.52;9.73;;;;;;;;;;6215829;22;20206;-89
2021/03/25 18:40:38;;;;;;;25.98;8.98;;;;;;;;;;6232703;23;20183;-90
2021/03/25 18:43:42;;;;;;;25.35;9.40;;;;;;;;;;6234735;23;20159;-90
2021/03/25 18:46:48;;;;;;;22.15;9.07;;;;;;;;;;6232421;23;20218;-90
2021/03/25 18:49:53;;;;;;;30.90;10.30;;;;;;;;;;6215493;22;20163;-89
2021/03/25 18:52:58;;;;;;;32.10;10.10;;;;;;;;;;6216810;23;20167;-90
2021/03/25 18:56:03;;;;;;;25.05;9.60;;;;;;;;;;6215640;23;20198;-89
2021/03/25 18:59:10;;;;;;;31.47;9.83;;;;;;;;;;6233759;23;20191;-88
2021/03/25 19:02:16;;;;;;;29.30;10.17;;;;;;;;;;6233614;23;20187;-88
2021/03/25 19:05:23;;;;;;;25.23;9.17;;;;;;;;;;6215620;23;20228;-89
2021/03/25 19:08:30;;;;;;;25.30;11.50;;;;;;;;;;6232741;22;20171;-88
2021/03/25 19:11:35;;;;;;;31.33;10.47;;;;;;;;;;6215290;23;20191;-89
2021/03/25 19:14:40;;;;;;;32.03;10.90;;;;;;;;;;6232544;22;20238;-90
2021/03/25 19:17:46;;;;;;;31.73;10.10;;;;;;;;;;6226380;22;20210;-89
2021/03/25 19:20:52;;;;;;;29.63;9.03;;;;;;;;;;6233504;23;20171;-88
2021/03/25 19:27:45;;;;;;;23.63;9.03;;;;;;;;;;6252249;23;20171;-88
2021/03/25 19:30:50;;;;;;;23.03;9.20;;;;;;;;;;6232723;23;20199;-89
2021/03/25 19:33:56;;;;;;;32.50;10.43;;;;;;;;;;6233694;22;20223;-89
2021/03/25 19:37:03;;;;;;;27.10;9.60;;;;;;;;;;6233309;23;20607;-88
2021/03/25 19:40:11;;;;;;;25.73;8.87;;;;;;;;;;6234285;23;20167;-88
2021/03/25 19:43:18;;;;;;;27.90;9.70;;;;;;;;;;6233680;23;20171;-88
2021/03/25 19:46:26;;;;;;;21.73;9.37;;;;;;;;;;6233575;23;20625;-88
2021/03/25 19:49:32;;;;;;;29.67;9.77;;;;;;;;;;6233293;22;20166;-87
2021/03/25 19:52:38;;;;;;;26.50;9.43;;;;;;;;;;6233923;23;20215;-88
2021/03/25 19:55:43;;;;;;;31.20;10.27;;;;;;;;;;6251008;23;20199;-87
2021/03/25 19:58:49;;;;;;;27.93;10.10;;;;;;;;;;6234643;23;20222;-89
2021/03/25 20:01:56;;;;;;;31.40;10.03;;;;;;;;;;6233994;22;20195;-87
2021/03/25 20:05:01;;;;;;;30.73;11.07;;;;;;;;;;6227667;23;20738;-87
2021/03/25 20:08:06;;;;;;;29.07;10.63;;;;;;;;;;6229934;23;20499;-89
2021/03/25 20:11:13;;;;;;;31.33;10.20;;;;;;;;;;6229050;23;20191;-89
2021/03/25 20:14:19;;;;;;;27.43;10.67;;;;;;;;;;6227973;23;20194;-89
2021/03/25 20:17:24;;;;;;;28.80;11.43;;;;;;;;;;6227990;23;20266;-88
2021/03/25 20:20:30;;;;;;;33.73;11.27;;;;;;;;;;6227697;23;20167;-87
2021/03/25 20:23:35;;;;;;;30.90;11.10;;;;;;;;;;6227430;23;20162;-88
2021/03/25 20:26:42;;;;;;;28.00;10.97;;;;;;;;;;6228615;23;20175;-89
2021/03/25 20:29:47;;;;;;;29.00;11.73;;;;;;;;;;6228841;22;20171;-89
2021/03/25 20:32:52;;;;;;;26.80;10.33;;;;;;;;;;6228413;22;20171;-90
2021/03/25 20:35:59;;;;;;;32.97;10.80;;;;;;;;;;6228304;23;20191;-88
2021/03/25 20:39:07;;;;;;;26.63;10.97;;;;;;;;;;6228625;23;20167;-87
2021/03/25 20:42:15;;;;;;;28.30;11.07;;;;;;;;;;6229794;23;20528;-89
2021/03/25 20:45:22;;;;;;;25.30;10.73;;;;;;;;;;6226554;23;20219;-89
2021/03/25 20:48:27;;;;;;;27.37;10.77;;;;;;;;;;6229020;23;20169;-89
2021/03/25 20:51:32;;;;;;;27.63;10.97;;;;;;;;;;6227794;23;20166;-88
2021/03/25 20:54:37;;;;;;;23.47;9.80;;;;;;;;;;6227558;23;20208;-88
2021/03/25 20:57:42;;;;;;;27.37;10.53;;;;;;;;;;6226399;23;20230;-89
2021/03/25 21:00:48;;;;;;;27.30;10.70;;;;;;;;;;6228578;23;20171;-90
2021/03/25 21:03:53;;;;;;;28.87;11.57;;;;;;;;;;6229274;22;20210;-89
2021/03/25 21:06:58;;;;;;;32.80;12.20;;;;;;;;;;6229346;22;20170;-89
2021/03/25 21:10:04;;;;;;;30.17;10.90;;;;;;;;;;6226674;23;20199;-89
2021/03/25 21:13:09;;;;;;;24.57;10.70;;;;;;;;;;6225198;22;20235;-88
2021/03/25 21:16:14;;;;;;;38.03;12.03;;;;;;;;;;6225918;22;20230;-87
2021/03/25 21:19:19;;;;;;;28.67;11.30;;;;;;;;;;6208136;23;20171;-88
2021/03/25 21:22:25;;;;;;;27.97;10.93;;;;;;;;;;6208426;23;20214;-87
2021/03/25 21:25:30;;;;;;;28.97;10.77;;;;;;;;;;6209147;23;20163;-88
2021/03/25 21:28:35;;;;;;;26.53;10.50;;;;;;;;;;6209757;23;20166;-87
2021/03/25 21:31:39;;;;;;;28.20;10.60;;;;;;;;;;6209385;23;20496;-88
2021/03/25 21:34:44;;;;;;;28.63;11.10;;;;;;;;;;6209875;23;20195;-87
2021/03/25 21:37:50;;;;;;;29.40;10.77;;;;;;;;;;6209644;23;20183;-88
2021/03/25 21:40:56;;;;;;;28.03;10.43;;;;;;;;;;6208472;23;20666;-87
2021/03/25 21:44:00;;;;;;;35.20;10.83;;;;;;;;;;6211144;23;20155;-89
2021/03/25 21:47:05;;;;;;;23.40;10.50;;;;;;;;;;6210634;23;20195;-88
2021/03/25 21:50:10;;;;;;;27.03;10.77;;;;;;;;;;6211078;23;20211;-88
2021/03/25 21:53:23;;;;;;;26.63;10.87;;;;;;;;;;6211467;23;20167;-89
2021/03/25 21:56:30;;;;;;;30.40;11.10;;;;;;;;;;6209831;23;20227;-88
2021/03/25 21:59:34;;;;;;;29.87;10.23;;;;;;;;;;6229061;22;20203;-88
2021/03/25 22:02:39;;;;;;;31.90;10.87;;;;;;;;;;6212078;23;20195;-88
2021/03/25 22:05:43;;;;;;;31.93;11.27;;;;;;;;;;6211664;23;20175;-88
2021/03/25 22:08:49;;;;;;;27.00;10.00;;;;;;;;;;6210436;23;20320;-88
2021/03/25 22:11:54;;;;;;;25.30;10.53;;;;;;;;;;6209252;23;20218;-88
2021/03/25 22:14:58;;;;;;;30.47;11.13;;;;;;;;;;6207599;23;20250;-88
2021/03/25 22:18:08;;;;;;;30.20;11.43;;;;;;;;;;6222616;23;20207;-88
2021/03/25 22:21:13;;;;;;;30.83;11.33;;;;;;;;;;6224323;23;20234;-86
2021/03/25 22:24:19;;;;;;;29.97;10.97;;;;;;;;;;6225215;23;20167;-90
2021/03/25 22:27:23;;;;;;;26.67;10.80;;;;;;;;;;6225379;23;20178;-88
2021/03/25 22:30:28;;;;;;;29.60;11.13;;;;;;;;;;6227182;23;20506;-87
2021/03/25 22:33:33;;;;;;;31.50;11.33;;;;;;;;;;6228346;23;20502;-89
2021/03/25 22:36:38;;;;;;;29.33;11.47;;;;;;;;;;6228791;23;20326;-89
2021/03/25 22:39:44;;;;;;;28.37;10.57;;;;;;;;;;6227929;23;20436;-88
2021/03/25 22:42:50;;;;;;;28.90;10.23;;;;;;;;;;6229393;23;20302;-88
2021/03/25 22:45:56;;;;;;;27.13;10.30;;;;;;;;;;6224530;23;20230;-88
2021/03/25 22:49:00;;;;;;;26.33;10.47;;;;;;;;;;6227610;23;20171;-89
2021/03/25 22:52:05;;;;;;;36.80;11.10;;;;;;;;;;6226725;22;20187;-87
2021/03/25 22:55:11;;;;;;;24.67;9.93;;;;;;;;;;6225571;23;20264;-88
2021/03/25 22:58:17;;;;;;;23.57;9.30;;;;;;;;;;6244637;23;20170;-88
2021/03/25 23:05:11;;;;;;;26.53;9.87;;;;;;;;;;6225734;23;20159;-90
2021/03/25 23:08:15;;;;;;;34.47;10.13;;;;;;;;;;6224881;23;20179;-88
2021/03/25 23:11:21;;;;;;;22.20;9.83;;;;;;;;;;6225174;23;20509;-88
2021/03/25 23:14:26;;;;;;;40.43;15.50;;;;;;;;;;6225371;23;20286;-88
2021/03/25 23:17:31;;;;;;;24.43;9.97;;;;;;;;;;6224170;23;20521;-89
2021/03/25 23:20:36;;;;;;;24.50;9.27;;;;;;;;;;6224765;23;20171;-88
2021/03/25 23:23:40;;;;;;;28.70;10.27;;;;;;;;;;6224201;23;20278;-89
2021/03/25 23:26:47;;;;;;;29.80;10.53;;;;;;;;;;6223185;23;20242;-88
2021/03/25 23:29:51;;;;;;;26.97;10.00;;;;;;;;;;6225058;22;20170;-88
2021/03/25 23:32:58;;;;;;;32.23;10.63;;;;;;;;;;6223746;23;20175;-87
2021/03/25 23:36:07;;;;;;;32.83;11.17;;;;;;;;;;6224646;22;20206;-89
2021/03/25 23:39:13;;;;;;;30.43;10.97;;;;;;;;;;6225129;23;20183;-88
2021/03/25 23:42:20;;;;;;;30.70;10.07;;;;;;;;;;6223500;23;20171;-88
2021/03/25 23:45:28;;;;;;;28.40;10.00;;;;;;;;;;6223794;23;20167;-90
2021/03/25 23:48:33;;;;;;;28.17;10.77;;;;;;;;;;6229976;22;20178;-87
2021/03/25 23:51:38;;;;;;;32.47;10.23;;;;;;;;;;6227822;23;20627;-88
2021/03/25 23:54:43;;;;;;;28.93;10.30;;;;;;;;;;6224162;22;20206;-88
2021/03/25 23:57:48;;;;;;;31.30;10.87;;;;;;;;;;6223212;23;20214;-88
